createdAt,value
2017-06-02T00:00:34.239Z,18.15
2017-06-02T00:01:35.670Z,18.12
2017-06-02T00:02:37.095Z,18.37
2017-06-02T00:03:38.523Z,18.04
2017-06-02T00:04:39.950Z,17.89
2017-06-02T00:05:41.373Z,17.85
2017-06-02T00:06:42.803Z,17.88
2017-06-02T00:07:44.234Z,18.03
2017-06-02T00:08:45.663Z,18.04
2017-06-02T00:09:47.102Z,18.09
2017-06-02T00:10:48.538Z,18.19
2017-06-02T00:11:49.963Z,18.24
2017-06-02T00:12:51.420Z,18.10
2017-06-02T00:13:52.850Z,17.78
2017-06-02T00:14:54.274Z,17.81
2017-06-02T00:15:55.704Z,17.84
2017-06-02T00:16:58.983Z,18.06
2017-06-02T00:18:00.414Z,18.18
2017-06-02T00:19:01.836Z,18.25
2017-06-02T00:20:03.278Z,18.13
2017-06-02T00:21:04.690Z,18.18
2017-06-02T00:22:06.102Z,18.17
2017-06-02T00:23:07.539Z,18.06
2017-06-02T00:24:08.966Z,18.28
2017-06-02T00:25:10.394Z,18.02
2017-06-02T00:26:11.824Z,18.00
2017-06-02T00:27:13.238Z,18.13
2017-06-02T00:28:14.662Z,18.15
2017-06-02T00:29:16.087Z,18.21
2017-06-02T00:30:17.513Z,18.19
2017-06-02T00:31:18.941Z,17.94
2017-06-02T00:32:20.365Z,17.95
2017-06-02T00:33:21.797Z,17.76
2017-06-02T00:34:23.228Z,17.67
2017-06-02T00:35:24.648Z,17.67
2017-06-02T00:36:26.077Z,17.91
2017-06-02T00:37:27.502Z,17.85
2017-06-02T00:38:28.931Z,17.97
2017-06-02T00:39:30.363Z,18.06
2017-06-02T00:40:32.662Z,18.09
2017-06-02T00:41:34.063Z,18.06
2017-06-02T00:42:35.490Z,17.97
2017-06-02T00:43:36.918Z,17.74
2017-06-02T00:44:38.347Z,17.73
2017-06-02T00:45:39.779Z,17.70
2017-06-02T00:46:42.010Z,17.53
2017-06-02T00:47:43.476Z,17.57
2017-06-02T00:48:44.914Z,17.55
2017-06-02T00:49:46.482Z,17.66
2017-06-02T00:50:47.785Z,17.55
2017-06-02T00:51:50.193Z,17.46
2017-06-02T00:52:51.632Z,17.35
2017-06-02T00:53:53.059Z,17.08
2017-06-02T00:54:54.479Z,16.90
2017-06-02T00:55:55.900Z,16.68
2017-06-02T00:56:57.345Z,16.77
2017-06-02T00:57:58.775Z,16.73
2017-06-02T00:59:00.208Z,16.99
2017-06-02T01:00:01.632Z,17.20
2017-06-02T01:01:03.061Z,17.35
2017-06-02T01:02:04.483Z,17.46
2017-06-02T01:03:05.902Z,17.43
2017-06-02T01:04:07.324Z,17.41
2017-06-02T01:05:08.748Z,17.69
2017-06-02T01:06:10.174Z,17.74
2017-06-02T01:07:11.600Z,17.66
2017-06-02T01:08:13.025Z,17.51
2017-06-02T01:09:14.448Z,17.43
2017-06-02T01:10:15.875Z,17.40
2017-06-02T01:11:17.295Z,17.35
2017-06-02T01:12:18.725Z,17.13
2017-06-02T01:13:20.154Z,16.98
2017-06-02T01:14:21.579Z,17.03
2017-06-02T01:15:23.023Z,17.11
2017-06-02T01:16:24.446Z,17.07
2017-06-02T01:17:25.871Z,17.22
2017-06-02T01:18:27.293Z,16.92
2017-06-02T01:19:28.717Z,17.00
2017-06-02T01:20:30.145Z,17.13
2017-06-02T01:21:31.564Z,17.29
2017-06-02T01:22:32.992Z,17.30
2017-06-02T01:23:34.415Z,17.44
2017-06-02T01:24:35.833Z,17.48
2017-06-02T01:25:37.803Z,17.48
2017-06-02T01:26:39.299Z,17.36
2017-06-02T01:27:40.723Z,17.32
2017-06-02T01:28:42.143Z,17.17
2017-06-02T01:29:43.570Z,17.06
2017-06-02T01:30:45.043Z,17.04
2017-06-02T01:31:46.475Z,17.11
2017-06-02T01:32:47.902Z,17.20
2017-06-02T01:33:49.427Z,17.18
2017-06-02T01:34:50.865Z,17.35
2017-06-02T01:35:52.286Z,17.55
2017-06-02T01:36:55.769Z,17.63
2017-06-02T01:37:57.196Z,17.62
2017-06-02T01:38:58.616Z,17.62
2017-06-02T01:40:00.048Z,17.62
2017-06-02T01:41:01.478Z,17.35
2017-06-02T01:42:02.899Z,17.48
2017-06-02T01:43:04.323Z,17.66
2017-06-02T01:44:05.752Z,17.79
2017-06-02T01:45:07.181Z,17.73
2017-06-02T01:46:08.603Z,17.89
2017-06-02T01:47:10.027Z,17.73
2017-06-02T01:48:11.452Z,17.76
2017-06-02T01:49:12.878Z,17.76
2017-06-02T01:50:14.302Z,17.84
2017-06-02T01:51:15.726Z,17.87
2017-06-02T01:52:17.156Z,17.69
2017-06-02T01:53:18.584Z,17.51
2017-06-02T01:54:20.009Z,17.53
2017-06-02T01:55:21.430Z,17.53
2017-06-02T01:56:22.854Z,17.44
2017-06-02T01:57:24.284Z,17.50
2017-06-02T01:58:25.714Z,17.59
2017-06-02T01:59:27.140Z,17.66
2017-06-02T02:00:28.566Z,17.69
2017-06-02T02:01:29.995Z,17.66
2017-06-02T02:02:31.418Z,17.71
2017-06-02T02:03:32.844Z,17.69
2017-06-02T02:04:34.265Z,17.79
2017-06-02T02:05:35.693Z,17.71
2017-06-02T02:06:37.115Z,17.88
2017-06-02T02:07:38.551Z,17.97
2017-06-02T02:08:39.977Z,17.89
2017-06-02T02:09:41.403Z,17.97
2017-06-02T02:10:42.824Z,18.04
2017-06-02T02:11:44.244Z,18.06
2017-06-02T02:12:45.666Z,18.04
2017-06-02T02:13:47.093Z,18.02
2017-06-02T02:14:48.518Z,18.13
2017-06-02T02:15:49.947Z,18.19
2017-06-02T02:16:51.377Z,18.02
2017-06-02T02:17:52.808Z,17.73
2017-06-02T02:18:54.228Z,17.73
2017-06-02T02:19:55.654Z,17.63
2017-06-02T02:20:57.082Z,17.71
2017-06-02T02:21:58.506Z,17.74
2017-06-02T02:22:59.933Z,17.95
2017-06-02T02:24:01.367Z,18.09
2017-06-02T02:25:02.795Z,18.04
2017-06-02T02:26:04.218Z,18.02
2017-06-02T02:27:05.643Z,18.00
2017-06-02T02:28:07.066Z,18.12
2017-06-02T02:29:08.494Z,18.12
2017-06-02T02:30:09.918Z,18.04
2017-06-02T02:31:11.343Z,18.07
2017-06-02T02:32:12.762Z,18.04
2017-06-02T02:33:14.189Z,18.03
2017-06-02T02:34:15.614Z,18.27
2017-06-02T02:35:17.060Z,18.10
2017-06-02T02:36:18.482Z,18.03
2017-06-02T02:37:20.507Z,18.03
2017-06-02T02:38:21.933Z,18.22
2017-06-02T02:39:23.354Z,18.06
2017-06-02T02:40:24.773Z,17.92
2017-06-02T02:41:26.200Z,18.18
2017-06-02T02:42:27.619Z,18.09
2017-06-02T02:43:29.046Z,17.99
2017-06-02T02:44:30.475Z,18.00
2017-06-02T02:45:31.895Z,18.04
2017-06-02T02:46:33.324Z,18.02
2017-06-02T02:47:34.746Z,18.03
2017-06-02T02:48:36.169Z,18.02
2017-06-02T02:49:37.594Z,18.00
2017-06-02T02:50:39.009Z,18.00
2017-06-02T02:51:40.433Z,17.88
2017-06-02T02:52:41.855Z,17.73
2017-06-02T02:53:45.442Z,17.76
2017-06-02T02:54:46.863Z,17.63
2017-06-02T02:55:48.290Z,17.59
2017-06-02T02:56:49.712Z,17.66
2017-06-02T02:57:51.137Z,17.79
2017-06-02T02:58:52.562Z,17.69
2017-06-02T02:59:53.984Z,17.89
2017-06-02T03:00:55.416Z,17.94
2017-06-02T03:01:56.840Z,18.07
2017-06-02T03:02:58.263Z,18.03
2017-06-02T03:03:59.691Z,18.00
2017-06-02T03:05:01.112Z,17.76
2017-06-02T03:06:02.545Z,17.70
2017-06-02T03:07:03.993Z,17.71
2017-06-02T03:08:05.423Z,17.70
2017-06-02T03:09:06.857Z,17.73
2017-06-02T03:10:08.285Z,17.73
2017-06-02T03:11:09.708Z,17.79
2017-06-02T03:12:11.133Z,17.81
2017-06-02T03:13:12.552Z,17.78
2017-06-02T03:14:13.978Z,17.76
2017-06-02T03:15:15.398Z,17.69
2017-06-02T03:16:16.829Z,17.63
2017-06-02T03:17:18.251Z,17.64
2017-06-02T03:18:19.675Z,17.48
2017-06-02T03:19:21.105Z,17.41
2017-06-02T03:20:22.539Z,17.59
2017-06-02T03:21:23.962Z,17.51
2017-06-02T03:22:25.403Z,17.57
2017-06-02T03:23:26.832Z,17.66
2017-06-02T03:24:28.261Z,17.55
2017-06-02T03:25:29.683Z,17.62
2017-06-02T03:26:31.105Z,17.54
2017-06-02T03:27:32.528Z,17.50
2017-06-02T03:28:33.959Z,17.51
2017-06-02T03:29:35.485Z,17.63
2017-06-02T03:30:36.915Z,17.55
2017-06-02T03:31:38.345Z,17.66
2017-06-02T03:32:39.779Z,17.79
2017-06-02T03:33:41.209Z,17.81
2017-06-02T03:34:42.626Z,17.79
2017-06-02T03:35:44.052Z,17.74
2017-06-02T03:36:45.472Z,17.73
2017-06-02T03:37:48.700Z,17.71
2017-06-02T03:38:50.126Z,17.74
2017-06-02T03:39:51.552Z,17.73
2017-06-02T03:40:52.975Z,17.76
2017-06-02T03:41:54.402Z,17.87
2017-06-02T03:42:55.824Z,17.89
2017-06-02T03:43:57.247Z,18.03
2017-06-02T03:44:58.674Z,17.84
2017-06-02T03:46:00.096Z,17.87
2017-06-02T03:47:01.521Z,17.76
2017-06-02T03:48:02.957Z,17.88
2017-06-02T03:49:04.381Z,17.94
2017-06-02T03:50:05.807Z,17.97
2017-06-02T03:51:07.234Z,18.12
2017-06-02T03:52:08.658Z,18.02
2017-06-02T03:53:10.083Z,18.03
2017-06-02T03:54:11.525Z,18.04
2017-06-02T03:55:12.954Z,18.18
2017-06-02T03:56:14.380Z,18.10
2017-06-02T03:57:15.810Z,18.09
2017-06-02T03:58:17.237Z,18.19
2017-06-02T03:59:18.662Z,18.09
2017-06-02T04:00:20.097Z,18.06
2017-06-02T04:01:21.527Z,18.15
2017-06-02T04:02:22.961Z,18.28
2017-06-02T04:03:24.384Z,18.27
2017-06-02T04:04:25.818Z,18.25
2017-06-02T04:05:27.247Z,18.29
2017-06-02T04:06:28.674Z,18.21
2017-06-02T04:07:30.103Z,18.36
2017-06-02T04:08:31.538Z,18.37
2017-06-02T04:09:32.963Z,18.39
2017-06-02T04:10:34.395Z,18.34
2017-06-02T04:11:35.819Z,18.33
2017-06-02T04:12:37.250Z,18.12
2017-06-02T04:13:38.686Z,17.99
2017-06-02T04:14:40.104Z,18.12
2017-06-02T04:15:41.530Z,18.02
2017-06-02T04:16:42.959Z,18.17
2017-06-02T04:17:44.386Z,18.17
2017-06-02T04:18:45.814Z,18.25
2017-06-02T04:19:47.240Z,18.15
2017-06-02T04:20:48.666Z,18.25
2017-06-02T04:21:50.095Z,18.21
2017-06-02T04:22:51.530Z,18.40
2017-06-02T04:23:53.038Z,18.44
2017-06-02T04:24:54.463Z,18.40
2017-06-02T04:25:55.891Z,18.46
2017-06-02T04:26:57.334Z,18.31
2017-06-02T04:27:58.764Z,18.37
2017-06-02T04:29:00.189Z,18.33
2017-06-02T04:30:01.629Z,18.27
2017-06-02T04:31:03.145Z,18.24
2017-06-02T04:32:04.576Z,18.40
2017-06-02T04:33:06.001Z,18.39
2017-06-02T04:34:07.431Z,18.34
2017-06-02T04:35:08.921Z,18.28
2017-06-02T04:36:10.362Z,18.06
2017-06-02T04:37:11.779Z,18.21
2017-06-02T04:38:13.209Z,18.19
2017-06-02T04:39:14.635Z,18.37
2017-06-02T04:40:16.062Z,18.52
2017-06-02T04:41:17.495Z,18.42
2017-06-02T04:42:18.925Z,18.46
2017-06-02T04:43:20.357Z,18.55
2017-06-02T04:44:21.789Z,18.52
2017-06-02T04:45:23.282Z,18.50
2017-06-02T04:46:24.706Z,18.54
2017-06-02T04:47:26.135Z,18.55
2017-06-02T04:48:27.561Z,18.47
2017-06-02T04:49:28.990Z,18.40
2017-06-02T04:50:30.415Z,18.33
2017-06-02T04:51:31.840Z,18.31
2017-06-02T04:52:33.267Z,18.40
2017-06-02T04:53:34.695Z,18.46
2017-06-02T04:54:36.125Z,18.37
2017-06-02T04:55:37.547Z,18.52
2017-06-02T04:56:38.978Z,18.47
2017-06-02T04:57:40.401Z,18.59
2017-06-02T04:58:41.830Z,18.70
2017-06-02T04:59:43.263Z,18.87
2017-06-02T05:00:44.690Z,18.65
2017-06-02T05:01:46.116Z,18.65
2017-06-02T05:02:47.544Z,18.76
2017-06-02T05:03:48.976Z,18.72
2017-06-02T05:04:50.400Z,18.94
2017-06-02T05:05:51.830Z,19.01
2017-06-02T05:06:53.257Z,19.06
2017-06-02T05:07:54.681Z,19.18
2017-06-02T05:08:56.109Z,19.02
2017-06-02T05:09:57.534Z,19.08
2017-06-02T05:10:58.968Z,19.15
2017-06-02T05:12:00.396Z,19.31
2017-06-02T05:13:01.841Z,19.23
2017-06-02T05:14:03.255Z,19.40
2017-06-02T05:15:04.686Z,19.35
2017-06-02T05:16:06.109Z,19.35
2017-06-02T05:17:07.543Z,19.46
2017-06-02T05:18:08.963Z,19.46
2017-06-02T05:19:10.385Z,19.54
2017-06-02T05:20:11.816Z,19.46
2017-06-02T05:21:13.247Z,19.48
2017-06-02T05:22:14.682Z,19.60
2017-06-02T05:23:16.109Z,19.76
2017-06-02T05:24:17.540Z,19.84
2017-06-02T05:25:18.968Z,19.73
2017-06-02T05:26:20.394Z,19.69
2017-06-02T05:27:21.824Z,19.63
2017-06-02T05:28:23.256Z,19.58
2017-06-02T05:29:24.683Z,19.69
2017-06-02T05:30:26.114Z,19.76
2017-06-02T05:31:27.550Z,19.87
2017-06-02T05:32:28.979Z,19.86
2017-06-02T05:33:30.406Z,19.84
2017-06-02T05:34:31.834Z,19.68
2017-06-02T05:35:34.168Z,19.69
2017-06-02T05:36:35.598Z,19.69
2017-06-02T05:37:37.027Z,19.55
2017-06-02T05:38:38.455Z,19.38
2017-06-02T05:39:39.885Z,19.53
2017-06-02T05:40:41.321Z,19.54
2017-06-02T05:41:42.748Z,19.47
2017-06-02T05:42:44.175Z,19.46
2017-06-02T05:43:46.570Z,19.50
2017-06-02T05:44:48.000Z,19.40
2017-06-02T05:45:49.430Z,19.46
2017-06-02T05:46:50.864Z,19.38
2017-06-02T05:47:52.293Z,19.25
2017-06-02T05:48:53.723Z,19.40
2017-06-02T05:49:55.156Z,19.46
2017-06-02T05:50:56.576Z,19.20
2017-06-02T05:51:58.010Z,19.39
2017-06-02T05:52:59.438Z,19.29
2017-06-02T05:54:00.870Z,19.46
2017-06-02T05:55:02.295Z,19.53
2017-06-02T05:56:03.725Z,19.55
2017-06-02T05:57:05.157Z,19.58
2017-06-02T05:58:07.334Z,19.75
2017-06-02T05:59:08.751Z,19.79
2017-06-02T06:00:10.181Z,19.76
2017-06-02T06:01:11.608Z,19.55
2017-06-02T06:02:13.042Z,19.84
2017-06-02T06:03:14.478Z,19.91
2017-06-02T06:04:15.907Z,19.94
2017-06-02T06:05:17.330Z,19.98
2017-06-02T06:06:18.762Z,19.84
2017-06-02T06:07:20.205Z,19.91
2017-06-02T06:08:21.640Z,19.98
2017-06-02T06:09:23.062Z,19.94
2017-06-02T06:10:24.489Z,20.03
2017-06-02T06:11:25.912Z,20.10
2017-06-02T06:12:27.340Z,20.30
2017-06-02T06:13:28.800Z,20.18
2017-06-02T06:14:30.231Z,20.13
2017-06-02T06:15:31.667Z,19.93
2017-06-02T06:16:33.095Z,20.18
2017-06-02T06:17:34.520Z,20.16
2017-06-02T06:18:35.947Z,20.41
2017-06-02T06:19:37.373Z,20.24
2017-06-02T06:20:38.802Z,20.25
2017-06-02T06:21:40.235Z,20.34
2017-06-02T06:22:41.665Z,20.38
2017-06-02T06:23:43.099Z,20.35
2017-06-02T06:24:44.541Z,20.38
2017-06-02T06:25:45.970Z,20.51
2017-06-02T06:26:47.441Z,20.39
2017-06-02T06:27:48.834Z,20.49
2017-06-02T06:28:50.274Z,20.33
2017-06-02T06:29:51.700Z,20.41
2017-06-02T06:30:53.128Z,20.50
2017-06-02T06:31:54.562Z,20.65
2017-06-02T06:32:55.993Z,20.58
2017-06-02T06:33:57.423Z,20.76
2017-06-02T06:34:58.854Z,20.74
2017-06-02T06:36:00.280Z,20.68
2017-06-02T06:37:01.713Z,20.65
2017-06-02T06:38:03.152Z,20.69
2017-06-02T06:39:04.582Z,20.79
2017-06-02T06:40:06.009Z,20.66
2017-06-02T06:41:07.460Z,20.90
2017-06-02T06:42:08.902Z,20.95
2017-06-02T06:43:10.331Z,20.91
2017-06-02T06:44:11.757Z,21.02
2017-06-02T06:45:13.275Z,20.99
2017-06-02T06:46:14.703Z,21.13
2017-06-02T06:47:16.134Z,21.09
2017-06-02T06:48:17.617Z,21.17
2017-06-02T06:49:19.073Z,21.30
2017-06-02T06:50:20.504Z,21.04
2017-06-02T06:51:21.942Z,21.23
2017-06-02T06:52:23.403Z,21.26
2017-06-02T06:53:24.830Z,21.29
2017-06-02T06:54:26.253Z,21.26
2017-06-02T06:55:27.692Z,21.38
2017-06-02T06:56:29.119Z,21.41
2017-06-02T06:57:30.547Z,21.45
2017-06-02T06:58:31.974Z,21.45
2017-06-02T06:59:33.449Z,21.44
2017-06-02T07:00:34.883Z,21.51
2017-06-02T07:01:36.314Z,21.34
2017-06-02T07:02:37.741Z,21.36
2017-06-02T07:03:39.806Z,21.45
2017-06-02T07:04:41.238Z,21.60
2017-06-02T07:05:42.678Z,21.59
2017-06-02T07:06:44.112Z,21.60
2017-06-02T07:07:45.537Z,21.67
2017-06-02T07:08:46.967Z,21.61
2017-06-02T07:09:48.398Z,21.64
2017-06-02T07:10:49.827Z,21.74
2017-06-02T07:11:51.262Z,21.75
2017-06-02T07:12:52.690Z,21.71
2017-06-02T07:13:54.129Z,21.79
2017-06-02T07:14:55.560Z,21.69
2017-06-02T07:15:56.988Z,21.82
2017-06-02T07:16:58.418Z,21.90
2017-06-02T07:17:59.849Z,21.83
2017-06-02T07:19:01.276Z,21.85
2017-06-02T07:20:02.703Z,21.78
2017-06-02T07:21:04.139Z,21.82
2017-06-02T07:22:05.567Z,21.99
2017-06-02T07:23:06.993Z,22.12
2017-06-02T07:24:08.434Z,22.25
2017-06-02T07:25:09.871Z,22.19
2017-06-02T07:26:11.297Z,22.13
2017-06-02T07:27:12.727Z,22.13
2017-06-02T07:28:14.151Z,22.13
2017-06-02T07:29:15.591Z,22.23
2017-06-02T07:30:17.023Z,22.20
2017-06-02T07:31:18.453Z,22.12
2017-06-02T07:32:19.885Z,22.22
2017-06-02T07:33:21.316Z,22.27
2017-06-02T07:34:22.748Z,22.28
2017-06-02T07:35:24.179Z,22.38
2017-06-02T07:36:25.608Z,22.31
2017-06-02T07:37:29.711Z,22.23
2017-06-02T07:38:30.214Z,22.23
2017-06-02T07:39:31.645Z,22.20
2017-06-02T07:40:33.088Z,22.37
2017-06-02T07:41:34.518Z,22.43
2017-06-02T07:42:35.942Z,22.47
2017-06-02T07:43:37.374Z,22.50
2017-06-02T07:44:38.811Z,22.39
2017-06-02T07:45:40.240Z,22.34
2017-06-02T07:46:41.673Z,22.44
2017-06-02T07:47:43.104Z,22.47
2017-06-02T07:48:44.534Z,22.60
2017-06-02T07:49:45.971Z,22.59
2017-06-02T07:50:47.404Z,22.60
2017-06-02T07:51:48.831Z,22.60
2017-06-02T07:52:50.255Z,22.50
2017-06-02T07:53:51.685Z,22.56
2017-06-02T07:54:53.133Z,22.59
2017-06-02T07:55:57.123Z,22.75
2017-06-02T07:56:58.486Z,22.80
2017-06-02T07:57:59.924Z,22.75
2017-06-02T07:59:01.364Z,22.78
2017-06-02T08:00:02.798Z,22.84
2017-06-02T08:01:04.231Z,22.64
2017-06-02T08:02:05.665Z,22.75
2017-06-02T08:03:07.098Z,22.74
2017-06-02T08:04:08.529Z,22.80
2017-06-02T08:05:09.960Z,22.82
2017-06-02T08:06:11.390Z,22.72
2017-06-02T08:07:12.819Z,22.78
2017-06-02T08:08:14.246Z,22.82
2017-06-02T08:09:15.677Z,22.83
2017-06-02T08:10:17.109Z,22.99
2017-06-02T08:11:18.543Z,23.04
2017-06-02T08:12:19.980Z,23.11
2017-06-02T08:13:21.407Z,23.17
2017-06-02T08:14:22.842Z,22.99
2017-06-02T08:15:24.274Z,23.15
2017-06-02T08:16:25.706Z,23.14
2017-06-02T08:17:27.172Z,23.17
2017-06-02T08:18:28.597Z,23.20
2017-06-02T08:19:30.038Z,23.23
2017-06-02T08:20:31.499Z,23.27
2017-06-02T08:21:32.942Z,23.40
2017-06-02T08:22:34.372Z,23.45
2017-06-02T08:23:35.866Z,23.45
2017-06-02T08:24:37.243Z,23.46
2017-06-02T08:25:38.676Z,23.42
2017-06-02T08:26:40.107Z,23.35
2017-06-02T08:27:41.589Z,23.58
2017-06-02T08:28:43.016Z,23.49
2017-06-02T08:29:44.453Z,23.45
2017-06-02T08:30:45.879Z,23.39
2017-06-02T08:31:47.314Z,23.42
2017-06-02T08:32:48.837Z,23.53
2017-06-02T08:33:50.271Z,23.50
2017-06-02T08:34:51.704Z,23.50
2017-06-02T08:35:53.138Z,23.64
2017-06-02T08:36:54.567Z,23.70
2017-06-02T08:37:56.003Z,23.79
2017-06-02T08:38:57.429Z,23.70
2017-06-02T08:39:58.950Z,23.87
2017-06-02T08:41:00.965Z,24.00
2017-06-02T08:42:02.392Z,23.95
2017-06-02T08:43:03.826Z,23.75
2017-06-02T08:44:05.255Z,23.82
2017-06-02T08:45:06.689Z,23.97
2017-06-02T08:46:08.130Z,24.05
2017-06-02T08:47:09.565Z,24.00
2017-06-02T08:48:10.997Z,23.83
2017-06-02T08:49:12.426Z,23.79
2017-06-02T08:50:13.862Z,24.00
2017-06-02T08:51:15.301Z,23.98
2017-06-02T08:52:16.724Z,23.82
2017-06-02T08:53:18.153Z,24.19
2017-06-02T08:54:19.590Z,24.13
2017-06-02T08:55:21.013Z,24.41
2017-06-02T08:56:22.438Z,24.13
2017-06-02T08:57:24.602Z,24.38
2017-06-02T08:58:26.034Z,24.54
2017-06-02T08:59:27.465Z,24.49
2017-06-02T09:00:28.899Z,24.37
2017-06-02T09:01:30.330Z,24.50
2017-06-02T09:02:31.770Z,24.63
2017-06-02T09:03:33.210Z,24.67
2017-06-02T09:04:34.642Z,24.71
2017-06-02T09:05:36.088Z,24.64
2017-06-02T09:06:37.524Z,24.61
2017-06-02T09:07:38.956Z,24.67
2017-06-02T09:08:40.395Z,24.69
2017-06-02T09:09:41.830Z,24.79
2017-06-02T09:10:43.271Z,24.88
2017-06-02T09:11:44.709Z,24.77
2017-06-02T09:12:46.148Z,24.76
2017-06-02T09:13:47.588Z,24.59
2017-06-02T09:14:49.017Z,24.75
2017-06-02T09:15:50.455Z,24.45
2017-06-02T09:16:51.883Z,24.56
2017-06-02T09:17:53.319Z,24.41
2017-06-02T09:18:54.766Z,24.59
2017-06-02T09:19:56.211Z,24.80
2017-06-02T09:20:57.640Z,24.92
2017-06-02T09:21:59.082Z,25.13
2017-06-02T09:23:00.510Z,25.06
2017-06-02T09:24:01.945Z,24.97
2017-06-02T09:25:03.380Z,24.69
2017-06-02T09:26:04.855Z,24.71
2017-06-02T09:27:06.293Z,24.71
2017-06-02T09:28:07.726Z,24.71
2017-06-02T09:29:09.163Z,24.95
2017-06-02T09:30:10.603Z,24.91
2017-06-02T09:31:12.034Z,24.90
2017-06-02T09:32:13.553Z,24.97
2017-06-02T09:33:14.983Z,25.20
2017-06-02T09:34:16.415Z,25.30
2017-06-02T09:35:17.847Z,25.39
2017-06-02T09:36:19.289Z,25.28
2017-06-02T09:37:20.723Z,25.42
2017-06-02T09:38:22.151Z,25.42
2017-06-02T09:39:23.595Z,25.52
2017-06-02T09:40:25.028Z,25.71
2017-06-02T09:41:26.462Z,25.38
2017-06-02T09:42:27.897Z,25.37
2017-06-02T09:43:29.332Z,25.65
2017-06-02T09:44:30.773Z,25.57
2017-06-02T09:45:32.215Z,25.57
2017-06-02T09:46:33.646Z,25.28
2017-06-02T09:47:35.078Z,25.22
2017-06-02T09:48:36.515Z,25.10
2017-06-02T09:49:37.949Z,25.09
2017-06-02T09:50:39.381Z,25.30
2017-06-02T09:51:40.824Z,25.59
2017-06-02T09:52:42.265Z,25.77
2017-06-02T09:53:43.694Z,25.71
2017-06-02T09:54:45.128Z,25.77
2017-06-02T09:55:46.558Z,25.46
2017-06-02T09:56:47.997Z,25.56
2017-06-02T09:57:49.431Z,25.74
2017-06-02T09:58:51.878Z,25.67
2017-06-02T09:59:53.307Z,25.80
2017-06-02T10:00:54.749Z,25.71
2017-06-02T10:01:56.179Z,25.79
2017-06-02T10:02:57.630Z,25.59
2017-06-02T10:04:00.595Z,25.67
2017-06-02T10:05:02.030Z,25.57
2017-06-02T10:06:03.462Z,25.77
2017-06-02T10:07:04.896Z,25.75
2017-06-02T10:08:06.324Z,26.01
2017-06-02T10:09:07.763Z,25.97
2017-06-02T10:10:09.198Z,25.91
2017-06-02T10:11:10.633Z,25.99
2017-06-02T10:12:12.069Z,26.01
2017-06-02T10:13:13.500Z,26.17
2017-06-02T10:14:14.936Z,26.44
2017-06-02T10:15:16.370Z,26.31
2017-06-02T10:16:17.804Z,26.43
2017-06-02T10:17:19.235Z,26.31
2017-06-02T10:18:21.239Z,26.11
2017-06-02T10:19:22.679Z,26.02
2017-06-02T10:20:24.120Z,26.02
2017-06-02T10:21:25.568Z,26.12
2017-06-02T10:22:27.011Z,26.12
2017-06-02T10:23:28.450Z,26.28
2017-06-02T10:24:29.882Z,26.40
2017-06-02T10:25:31.320Z,26.42
2017-06-02T10:26:32.755Z,26.31
2017-06-02T10:27:34.187Z,26.18
2017-06-02T10:28:35.625Z,26.67
2017-06-02T10:29:37.077Z,26.73
2017-06-02T10:30:38.510Z,26.76
2017-06-02T10:31:39.943Z,26.64
2017-06-02T10:32:41.380Z,26.76
2017-06-02T10:33:42.825Z,26.72
2017-06-02T10:34:44.254Z,26.74
2017-06-02T10:35:45.693Z,26.54
2017-06-02T10:36:47.124Z,26.58
2017-06-02T10:37:48.560Z,26.96
2017-06-02T10:38:50.734Z,27.09
2017-06-02T10:39:52.175Z,26.94
2017-06-02T10:40:53.606Z,27.02
2017-06-02T10:41:55.038Z,27.14
2017-06-02T10:42:56.464Z,27.29
2017-06-02T10:43:57.904Z,27.35
2017-06-02T10:44:59.349Z,27.50
2017-06-02T10:46:00.783Z,27.51
2017-06-02T10:47:02.222Z,27.66
2017-06-02T10:48:03.660Z,27.70
2017-06-02T10:49:05.109Z,27.86
2017-06-02T10:50:06.542Z,28.04
2017-06-02T10:51:07.985Z,27.96
2017-06-02T10:52:09.425Z,28.11
2017-06-02T10:53:10.865Z,28.35
2017-06-02T10:54:12.300Z,28.48
2017-06-02T10:55:13.730Z,28.38
2017-06-02T10:56:15.168Z,28.26
2017-06-02T10:57:16.607Z,27.84
2017-06-02T10:58:18.035Z,27.73
2017-06-02T10:59:19.476Z,27.39
2017-06-02T11:00:20.905Z,27.69
2017-06-02T11:01:22.353Z,28.01
2017-06-02T11:02:23.799Z,28.23
2017-06-02T11:03:25.227Z,28.26
2017-06-02T11:04:26.674Z,28.25
2017-06-02T11:05:28.107Z,28.09
2017-06-02T11:06:29.543Z,28.36
2017-06-02T11:07:30.978Z,28.40
2017-06-02T11:08:32.410Z,28.48
2017-06-02T11:09:33.851Z,28.50
2017-06-02T11:10:35.291Z,28.54
2017-06-02T11:11:36.735Z,28.70
2017-06-02T11:12:38.174Z,28.84
2017-06-02T11:13:39.609Z,28.88
2017-06-02T11:14:41.048Z,28.96
2017-06-02T11:15:42.483Z,28.50
2017-06-02T11:16:43.915Z,28.44
2017-06-02T11:17:45.350Z,28.78
2017-06-02T11:18:46.788Z,28.44
2017-06-02T11:19:48.230Z,28.35
2017-06-02T11:20:49.666Z,28.33
2017-06-02T11:21:51.096Z,28.72
2017-06-02T11:22:52.533Z,28.87
2017-06-02T11:23:53.964Z,28.65
2017-06-02T11:24:55.405Z,28.44
2017-06-02T11:25:56.839Z,28.48
2017-06-02T11:27:01.069Z,28.17
2017-06-02T11:28:02.505Z,28.10
2017-06-02T11:29:03.943Z,28.10
2017-06-02T11:30:05.384Z,28.11
2017-06-02T11:31:06.907Z,27.89
2017-06-02T11:32:08.350Z,27.82
2017-06-02T11:33:09.786Z,27.73
2017-06-02T11:34:11.224Z,27.70
2017-06-02T11:35:12.666Z,27.73
2017-06-02T11:36:14.100Z,27.80
2017-06-02T11:37:15.572Z,27.76
2017-06-02T11:38:17.010Z,27.70
2017-06-02T11:39:18.443Z,27.53
2017-06-02T11:40:19.883Z,27.62
2017-06-02T11:41:21.322Z,27.85
2017-06-02T11:42:22.789Z,27.69
2017-06-02T11:43:27.881Z,27.06
2017-06-02T11:44:29.323Z,27.24
2017-06-02T11:45:30.758Z,27.31
2017-06-02T11:46:32.186Z,27.23
2017-06-02T11:47:33.630Z,27.11
2017-06-02T11:48:35.079Z,27.26
2017-06-02T11:49:36.523Z,27.23
2017-06-02T11:50:37.961Z,27.19
2017-06-02T11:51:39.670Z,27.71
2017-06-02T11:52:41.106Z,27.79
2017-06-02T11:53:42.538Z,28.09
2017-06-02T11:54:43.974Z,27.84
2017-06-02T11:55:45.751Z,28.13
2017-06-02T11:56:47.145Z,28.13
2017-06-02T11:57:48.855Z,28.41
2017-06-02T11:58:50.287Z,28.48
2017-06-02T11:59:51.735Z,28.69
2017-06-02T12:00:53.168Z,28.09
2017-06-02T12:01:54.609Z,28.22
2017-06-02T12:02:56.043Z,28.19
2017-06-02T12:03:57.481Z,28.36
2017-06-02T12:04:58.913Z,28.73
2017-06-02T12:06:00.464Z,28.29
2017-06-02T12:07:01.898Z,27.96
2017-06-02T12:08:03.338Z,27.88
2017-06-02T12:09:04.771Z,27.82
2017-06-02T12:10:06.483Z,27.84
2017-06-02T12:11:07.910Z,27.70
2017-06-02T12:12:09.352Z,27.85
2017-06-02T12:13:10.782Z,27.80
2017-06-02T12:14:12.223Z,27.89
2017-06-02T12:15:13.659Z,27.73
2017-06-02T12:16:15.095Z,27.66
2017-06-02T12:17:16.528Z,27.39
2017-06-02T12:18:17.966Z,27.20
2017-06-02T12:19:19.414Z,27.11
2017-06-02T12:20:20.847Z,27.39
2017-06-02T12:21:22.288Z,27.17
2017-06-02T12:22:23.745Z,26.98
2017-06-02T12:23:25.177Z,26.99
2017-06-02T12:24:27.263Z,27.01
2017-06-02T12:25:28.699Z,27.43
2017-06-02T12:26:30.135Z,27.84
2017-06-02T12:27:31.572Z,27.86
2017-06-02T12:28:33.010Z,27.71
2017-06-02T12:29:34.449Z,27.39
2017-06-02T12:30:35.879Z,27.47
2017-06-02T12:31:37.323Z,27.35
2017-06-02T12:32:38.788Z,27.06
2017-06-02T12:33:40.222Z,27.11
2017-06-02T12:34:41.658Z,27.13
2017-06-02T12:35:43.102Z,27.19
2017-06-02T12:36:44.533Z,27.23
2017-06-02T12:37:45.972Z,27.11
2017-06-02T12:38:47.409Z,27.01
2017-06-02T12:39:48.841Z,26.99
2017-06-02T12:40:50.278Z,26.89
2017-06-02T12:41:51.712Z,26.98
2017-06-02T12:42:53.155Z,27.29
2017-06-02T12:43:54.592Z,27.71
2017-06-02T12:44:56.750Z,27.84
2017-06-02T12:45:58.511Z,28.25
2017-06-02T19:08:49.237Z,21.30
2017-06-02T19:09:54.007Z,24.31
2017-06-02T19:10:55.440Z,22.92
2017-06-02T19:11:57.094Z,22.01
2017-06-02T19:12:59.055Z,21.50
2017-06-02T19:14:00.502Z,21.16
2017-06-02T19:15:02.377Z,20.89
2017-06-02T19:16:03.899Z,20.84
2017-06-02T19:17:05.528Z,20.80
2017-06-02T19:18:06.965Z,20.58
2017-06-02T19:19:08.411Z,20.71
2017-06-02T19:20:09.842Z,20.69
2017-06-02T19:21:11.272Z,20.35
2017-06-02T19:22:12.720Z,20.27
2017-06-02T19:23:14.155Z,20.28
2017-06-02T19:24:15.590Z,20.31
2017-06-02T19:25:17.021Z,20.28
2017-06-02T19:26:18.452Z,20.15
2017-06-02T19:27:19.876Z,20.21
2017-06-02T19:28:21.302Z,20.23
2017-06-02T19:29:22.734Z,20.21
2017-06-02T19:30:24.163Z,20.41
2017-06-02T19:31:25.595Z,20.42
2017-06-02T19:32:27.042Z,20.43
2017-06-02T19:33:28.481Z,20.31